createdAt,value
2022-10-05T00:00:19.810Z,1002.61
2022-10-05T00:01:19.894Z,1002.61
2022-10-05T00:02:19.848Z,1002.6
2022-10-05T00:03:19.869Z,1002.57
2022-10-05T00:04:19.885Z,1002.57
2022-10-05T00:05:19.968Z,1002.6
2022-10-05T00:06:19.922Z,1002.61
2022-10-05T00:07:19.940Z,1002.57
2022-10-05T00:08:19.957Z,1002.67
2022-10-05T00:09:19.975Z,1002.6
2022-10-05T00:10:19.997Z,1002.57
2022-10-05T00:11:20.015Z,1002.55
2022-10-05T00:12:20.035Z,1002.55
2022-10-05T00:13:20.049Z,1002.54
2022-10-05T00:14:20.070Z,1002.54
2022-10-05T00:15:20.092Z,1002.55
2022-10-05T00:16:20.161Z,1002.61
2022-10-05T00:17:21.163Z,1002.57
2022-10-05T00:18:20.143Z,1002.56
2022-10-05T00:19:20.162Z,1002.58
2022-10-05T00:20:20.178Z,1002.53
2022-10-05T00:21:20.197Z,1002.56
2022-10-05T00:22:20.219Z,1002.51
2022-10-05T00:23:20.237Z,1002.51
2022-10-05T00:24:20.253Z,1002.51
2022-10-05T00:25:20.280Z,1002.52
2022-10-05T00:26:20.291Z,1002.47
2022-10-05T00:27:20.308Z,1002.44
2022-10-05T00:28:20.340Z,1002.44
2022-10-05T00:29:20.345Z,1002.47
2022-10-05T00:30:20.360Z,1002.44
2022-10-05T00:31:20.453Z,1002.36
2022-10-05T00:32:20.406Z,1002.38
2022-10-05T00:33:20.444Z,1002.34
2022-10-05T00:34:20.440Z,1002.34
2022-10-05T00:35:20.461Z,1002.4
2022-10-05T00:36:20.473Z,1002.39
2022-10-05T00:37:20.495Z,1002.39
2022-10-05T00:38:20.511Z,1002.4
2022-10-05T00:39:20.534Z,1002.44
2022-10-05T00:40:20.548Z,1002.43
2022-10-05T00:41:20.571Z,1002.42
2022-10-05T00:42:20.588Z,1002.43
2022-10-05T00:43:20.608Z,1002.43
2022-10-05T00:44:20.625Z,1002.44
2022-10-05T00:45:20.643Z,1002.38
2022-10-05T00:46:20.752Z,1002.41
2022-10-05T00:47:20.685Z,1002.39
2022-10-05T00:48:20.696Z,1002.36
2022-10-05T00:49:20.743Z,1002.34
2022-10-05T00:50:20.733Z,1002.34
2022-10-05T00:51:20.756Z,1002.28
2022-10-05T00:52:20.773Z,1002.27
2022-10-05T00:53:20.793Z,1002.23
2022-10-05T00:54:20.802Z,1002.24
2022-10-05T00:55:20.831Z,1002.23
2022-10-05T00:56:20.844Z,1002.25
2022-10-05T00:57:20.863Z,1002.22
2022-10-05T00:58:20.886Z,1002.16
2022-10-05T00:59:21.201Z,1002.13
2022-10-05T01:00:20.921Z,1002.15
2022-10-05T01:01:20.975Z,1002.14
2022-10-05T01:02:21.050Z,1002.14
2022-10-05T01:03:20.975Z,1002.13
2022-10-05T01:04:20.996Z,1002.13
2022-10-05T01:05:21.036Z,1002.15
2022-10-05T01:06:21.037Z,1002.16
2022-10-05T01:07:21.047Z,1002.12
2022-10-05T01:08:21.071Z,1002.11
2022-10-05T01:09:21.086Z,1002.11
2022-10-05T01:10:21.106Z,1002.1
2022-10-05T01:11:21.123Z,1002.17
2022-10-05T01:12:21.144Z,1002.15
2022-10-05T01:13:21.162Z,1002.18
2022-10-05T01:14:21.183Z,1002.22
2022-10-05T01:15:21.200Z,1002.17
2022-10-05T01:16:21.289Z,1002.19
2022-10-05T01:17:21.234Z,1002.19
2022-10-05T01:18:21.251Z,1002.16
2022-10-05T01:19:21.271Z,1002.19
2022-10-05T01:20:21.294Z,1002.21
2022-10-05T01:21:21.331Z,1002.22
2022-10-05T01:22:21.328Z,1002.28
2022-10-05T01:23:21.343Z,1002.23
2022-10-05T01:24:21.364Z,1002.23
2022-10-05T01:25:21.382Z,1002.21
2022-10-05T01:26:21.401Z,1002.2
2022-10-05T01:27:21.418Z,1002.18
2022-10-05T01:28:21.499Z,1002.16
2022-10-05T01:29:21.456Z,1002.19
2022-10-05T01:30:21.478Z,1002.2
2022-10-05T01:31:21.505Z,1002.16
2022-10-05T01:32:21.512Z,1002.18
2022-10-05T01:33:21.534Z,1002.17
2022-10-05T01:34:21.549Z,1002.14
2022-10-05T01:35:21.566Z,1002.15
2022-10-05T01:36:21.587Z,1002.08
2022-10-05T01:37:21.626Z,1002.08
2022-10-05T01:38:21.626Z,1002.09
2022-10-05T01:39:21.639Z,1002.07
2022-10-05T01:40:21.662Z,1002.07
2022-10-05T01:41:21.677Z,1002.1
2022-10-05T01:42:21.697Z,1002.05
2022-10-05T01:43:21.716Z,1002.04
2022-10-05T01:44:21.734Z,1002.02
2022-10-05T01:45:21.751Z,1002
2022-10-05T01:46:21.830Z,1002.09
2022-10-05T01:47:21.787Z,1002.05
2022-10-05T01:48:21.806Z,1002.04
2022-10-05T01:49:21.827Z,1002.02
2022-10-05T01:50:21.843Z,1002.02
2022-10-05T01:51:21.868Z,1001.98
2022-10-05T01:52:21.881Z,1001.95
2022-10-05T01:53:22.287Z,1001.95
2022-10-05T01:54:21.918Z,1001.96
2022-10-05T01:55:21.940Z,1001.93
2022-10-05T01:56:21.956Z,1001.92
2022-10-05T01:57:21.976Z,1001.91
2022-10-05T01:58:21.992Z,1001.91
2022-10-05T01:59:22.214Z,1001.92
2022-10-05T02:00:22.027Z,1001.9
2022-10-05T02:01:22.111Z,1001.94
2022-10-05T02:02:22.108Z,1001.98
2022-10-05T02:03:22.091Z,1001.9
2022-10-05T02:04:43.537Z,1001.89
2022-10-05T02:05:22.127Z,1001.86
2022-10-05T02:06:22.143Z,1001.86
2022-10-05T02:07:22.170Z,1001.87
2022-10-05T02:08:22.179Z,1001.85
2022-10-05T02:09:22.222Z,1001.85
2022-10-05T02:10:22.216Z,1001.84
2022-10-05T02:11:22.233Z,1001.82
2022-10-05T02:12:22.253Z,1001.8
2022-10-05T02:13:22.272Z,1001.74
2022-10-05T02:14:22.288Z,1001.68
2022-10-05T02:15:22.311Z,1001.69
2022-10-05T02:16:22.368Z,1001.69
2022-10-05T02:17:22.345Z,1001.67
2022-10-05T02:18:22.359Z,1001.64
2022-10-05T02:19:22.383Z,1001.61
2022-10-05T02:20:22.401Z,1001.63
2022-10-05T02:21:22.420Z,1001.63
2022-10-05T02:22:22.436Z,1001.68
2022-10-05T02:23:22.457Z,1001.67
2022-10-05T02:24:22.508Z,1001.68
2022-10-05T02:25:22.519Z,1001.66
2022-10-05T02:26:22.514Z,1001.68
2022-10-05T02:27:22.532Z,1001.66
2022-10-05T02:28:22.608Z,1001.66
2022-10-05T02:29:22.571Z,1001.68
2022-10-05T02:30:22.586Z,1001.67
2022-10-05T02:31:22.654Z,1001.6
2022-10-05T02:32:22.620Z,1001.6
2022-10-05T02:33:22.642Z,1001.6
2022-10-05T02:34:22.660Z,1001.6
2022-10-05T02:35:22.681Z,1001.6
2022-10-05T02:36:22.698Z,1001.58
2022-10-05T02:37:22.719Z,1001.65
2022-10-05T02:38:22.737Z,1001.67
2022-10-05T02:39:22.752Z,1001.67
2022-10-05T02:40:22.774Z,1001.61
2022-10-05T02:41:22.813Z,1001.6
2022-10-05T02:42:22.807Z,1001.6
2022-10-05T02:43:22.825Z,1001.58
2022-10-05T02:44:22.846Z,1001.6
2022-10-05T02:45:22.861Z,1001.57
2022-10-05T02:46:22.981Z,1001.52
2022-10-05T02:47:22.898Z,1001.48
2022-10-05T02:48:22.919Z,1001.5
2022-10-05T02:49:22.938Z,1001.49
2022-10-05T02:50:22.956Z,1001.52
2022-10-05T02:51:22.970Z,1001.53
2022-10-05T02:52:22.993Z,1001.55
2022-10-05T02:53:23.010Z,1001.57
2022-10-05T02:54:23.030Z,1001.56
2022-10-05T02:55:23.047Z,1001.54
2022-10-05T02:56:23.067Z,1001.52
2022-10-05T02:57:23.108Z,1001.55
2022-10-05T02:58:23.104Z,1001.54
2022-10-05T02:59:23.470Z,1001.53
2022-10-05T03:00:23.142Z,1001.52
2022-10-05T03:01:23.211Z,1001.58
2022-10-05T03:02:23.198Z,1001.56
2022-10-05T03:03:23.196Z,1001.51
2022-10-05T03:04:23.217Z,1001.48
2022-10-05T03:05:23.231Z,1001.51
2022-10-05T03:06:23.252Z,1001.49
2022-10-05T03:07:23.273Z,1001.5
2022-10-05T03:08:23.286Z,1001.47
2022-10-05T03:09:23.304Z,1001.52
2022-10-05T03:10:23.327Z,1001.49
2022-10-05T03:11:23.341Z,1001.45
2022-10-05T03:12:23.360Z,1001.48
2022-10-05T03:13:23.401Z,1001.48
2022-10-05T03:14:23.405Z,1001.5
2022-10-05T03:15:23.416Z,1001.46
2022-10-05T03:16:23.531Z,1001.5
2022-10-05T03:17:23.453Z,1001.49
2022-10-05T03:18:26.334Z,1001.46
2022-10-05T03:19:23.488Z,1001.46
2022-10-05T03:20:23.510Z,1001.41
2022-10-05T03:21:23.526Z,1001.38
2022-10-05T03:22:23.548Z,1001.46
2022-10-05T03:23:23.559Z,1001.42
2022-10-05T03:24:23.585Z,1001.43
2022-10-05T03:25:23.602Z,1001.46
2022-10-05T03:26:23.618Z,1001.44
2022-10-05T03:27:23.636Z,1001.46
2022-10-05T03:28:23.744Z,1001.46
2022-10-05T03:29:23.697Z,1001.43
2022-10-05T03:30:23.695Z,1001.39
2022-10-05T03:31:23.747Z,1001.37
2022-10-05T03:32:23.728Z,1001.35
2022-10-05T03:33:23.749Z,1001.34
2022-10-05T03:34:23.764Z,1001.31
2022-10-05T03:35:23.789Z,1001.31
2022-10-05T03:36:23.802Z,1001.23
2022-10-05T03:37:23.821Z,1001.21
2022-10-05T03:38:23.837Z,1001.19
2022-10-05T03:39:23.857Z,1001.16
2022-10-05T03:40:23.877Z,1001.18
2022-10-05T03:41:23.896Z,1001.11
2022-10-05T03:42:23.911Z,1001.1
2022-10-05T03:43:23.933Z,1001.1
2022-10-05T03:44:23.953Z,1001.05
2022-10-05T03:45:23.992Z,1001.06
2022-10-05T03:46:24.021Z,1001.03
2022-10-05T03:47:24.005Z,1000.98
2022-10-05T03:48:24.021Z,1000.98
2022-10-05T03:49:24.040Z,1000.96
2022-10-05T03:50:24.060Z,1000.94
2022-10-05T03:51:24.081Z,1000.88
2022-10-05T03:52:24.094Z,1000.94
2022-10-05T03:53:24.116Z,1000.9
2022-10-05T03:54:24.133Z,1000.86
2022-10-05T03:55:24.155Z,1000.85
2022-10-05T03:56:24.170Z,1000.9
2022-10-05T03:57:24.192Z,1000.86
2022-10-05T03:58:24.207Z,1000.86
2022-10-05T03:59:26.812Z,1000.87
2022-10-05T04:00:24.243Z,1000.88
2022-10-05T04:01:24.321Z,1000.87
2022-10-05T04:02:24.318Z,1000.83
2022-10-05T04:03:24.298Z,1000.88
2022-10-05T04:04:24.316Z,1000.86
2022-10-05T04:05:24.337Z,1000.87
2022-10-05T04:06:24.354Z,1000.85
2022-10-05T04:07:24.466Z,1000.86
2022-10-05T04:08:24.388Z,1000.85
2022-10-05T04:09:24.411Z,1000.84
2022-10-05T04:10:24.423Z,1000.88
2022-10-05T04:11:24.447Z,1000.85
2022-10-05T04:12:24.464Z,1000.8
2022-10-05T04:13:24.489Z,1000.84
2022-10-05T04:14:24.499Z,1000.81
2022-10-05T04:15:24.526Z,1000.81
2022-10-05T04:16:24.578Z,1000.8
2022-10-05T04:17:24.578Z,1000.76
2022-10-05T04:18:24.574Z,1000.79
2022-10-05T04:19:24.592Z,1000.77
2022-10-05T04:20:24.607Z,1000.75
2022-10-05T04:21:24.634Z,1000.74
2022-10-05T04:22:24.648Z,1000.79
2022-10-05T04:23:24.658Z,1000.73
2022-10-05T04:24:24.690Z,1000.79
2022-10-05T04:25:24.699Z,1000.78
2022-10-05T04:26:24.718Z,1000.76
2022-10-05T04:27:24.737Z,1000.77
2022-10-05T04:28:28.285Z,1000.8
2022-10-05T04:29:24.771Z,1000.78
2022-10-05T04:30:24.791Z,1000.76
2022-10-05T04:31:24.840Z,1000.75
2022-10-05T04:32:24.828Z,1000.75
2022-10-05T04:33:24.867Z,1000.74
2022-10-05T04:34:24.867Z,1000.7
2022-10-05T04:35:24.882Z,1000.72
2022-10-05T04:36:24.900Z,1000.68
2022-10-05T04:37:24.915Z,1000.66
2022-10-05T04:38:24.944Z,1000.67
2022-10-05T04:39:24.953Z,1000.68
2022-10-05T04:40:24.973Z,1000.64
2022-10-05T04:41:24.987Z,1000.65
2022-10-05T04:42:25.015Z,1000.61
2022-10-05T04:43:25.028Z,1000.62
2022-10-05T04:44:25.044Z,1000.62
2022-10-05T04:45:25.065Z,1000.53
2022-10-05T04:46:25.137Z,1000.55
2022-10-05T04:47:25.096Z,1000.63
2022-10-05T04:48:25.125Z,1000.61
2022-10-05T04:49:25.161Z,1000.64
2022-10-05T04:50:25.160Z,1000.6
2022-10-05T04:51:25.171Z,1000.61
2022-10-05T04:52:25.193Z,1000.58
2022-10-05T04:53:25.207Z,1000.59
2022-10-05T04:54:25.227Z,1000.57
2022-10-05T04:55:25.245Z,1000.59
2022-10-05T04:56:25.262Z,1000.54
2022-10-05T04:57:25.280Z,1000.57
2022-10-05T04:58:25.305Z,1000.56
2022-10-05T04:59:25.316Z,1000.53
2022-10-05T05:00:25.337Z,1000.53
2022-10-05T05:01:25.374Z,1000.52
2022-10-05T05:02:25.372Z,1000.54
2022-10-05T05:03:25.430Z,1000.53
2022-10-05T05:04:25.407Z,1000.56
2022-10-05T05:05:25.440Z,1000.54
2022-10-05T05:06:25.444Z,1000.54
2022-10-05T05:07:25.460Z,1000.52
2022-10-05T05:08:25.487Z,1000.55
2022-10-05T05:09:25.495Z,1000.58
2022-10-05T05:10:25.516Z,1000.49
2022-10-05T05:11:25.536Z,1000.54
2022-10-05T05:12:25.554Z,1000.52
2022-10-05T05:13:25.570Z,1000.55
2022-10-05T05:14:25.590Z,1000.53
2022-10-05T05:15:25.610Z,1000.57
2022-10-05T05:16:25.677Z,1000.57
2022-10-05T05:17:25.646Z,1000.59
2022-10-05T05:18:25.661Z,1000.59
2022-10-05T05:19:25.679Z,1000.6
2022-10-05T05:20:25.694Z,1000.63
2022-10-05T05:21:25.744Z,1000.61
2022-10-05T05:22:25.731Z,1000.61
2022-10-05T05:23:25.749Z,1000.62
2022-10-05T05:24:25.766Z,1000.6
2022-10-05T05:25:25.788Z,1000.57
2022-10-05T05:26:25.805Z,1000.58
2022-10-05T05:27:25.823Z,1000.57
2022-10-05T05:28:25.908Z,1000.54
2022-10-05T05:29:26.008Z,1000.57
2022-10-05T05:30:25.878Z,1000.58
2022-10-05T05:31:25.941Z,1000.6
2022-10-05T05:32:25.913Z,1000.63
2022-10-05T05:33:25.934Z,1000.71
2022-10-05T05:34:25.951Z,1000.64
2022-10-05T05:35:25.974Z,1000.67
2022-10-05T05:36:25.987Z,1000.7
2022-10-05T05:37:26.027Z,1000.69
2022-10-05T05:38:26.023Z,1000.68
2022-10-05T05:39:26.040Z,1000.7
2022-10-05T05:40:26.060Z,1000.67
2022-10-05T05:41:26.075Z,1000.73
2022-10-05T05:42:26.093Z,1000.75
2022-10-05T05:43:26.115Z,1000.75
2022-10-05T05:44:26.131Z,1000.72
2022-10-05T05:45:26.151Z,1000.72
2022-10-05T05:46:39.094Z,1000.74
2022-10-05T05:47:26.204Z,1000.73
2022-10-05T05:48:26.203Z,1000.79
2022-10-05T05:49:26.222Z,1000.79
2022-10-05T05:50:26.239Z,1000.79
2022-10-05T05:51:26.258Z,1000.79
2022-10-05T05:52:26.275Z,1000.79
2022-10-05T05:53:26.319Z,1000.79
2022-10-05T05:54:26.310Z,1000.81
2022-10-05T05:55:29.866Z,1000.79
2022-10-05T05:56:26.347Z,1000.8
2022-10-05T05:57:26.365Z,1000.81
2022-10-05T05:58:26.385Z,1000.85
2022-10-05T05:59:26.403Z,1000.82
2022-10-05T06:00:26.419Z,1000.85
2022-10-05T06:01:33.103Z,1000.83
2022-10-05T06:02:26.517Z,1000.82
2022-10-05T06:03:26.605Z,1000.84
2022-10-05T06:04:26.493Z,1000.82
2022-10-05T06:05:26.511Z,1000.88
2022-10-05T06:06:26.529Z,1000.89
2022-10-05T06:07:30.315Z,1000.88
2022-10-05T06:08:26.567Z,1000.94
2022-10-05T06:09:26.607Z,1000.92
2022-10-05T06:10:26.605Z,1000.91
2022-10-05T06:11:26.616Z,1000.89
2022-10-05T06:12:26.641Z,1000.89
2022-10-05T06:13:26.655Z,1000.91
2022-10-05T06:14:26.677Z,1000.91
2022-10-05T06:15:26.692Z,1000.93
2022-10-05T06:16:26.756Z,1000.9
2022-10-05T06:17:26.729Z,1000.93
2022-10-05T06:18:26.747Z,1000.94
2022-10-05T06:19:26.766Z,1000.94
2022-10-05T06:20:26.787Z,1000.97
2022-10-05T06:21:26.801Z,1000.95
2022-10-05T06:22:26.822Z,1001
2022-10-05T06:23:26.832Z,1001
2022-10-05T06:24:26.862Z,1000.98
2022-10-05T06:25:26.899Z,1000.99
2022-10-05T06:26:26.895Z,1000.97
2022-10-05T06:27:26.915Z,1000.95
2022-10-05T06:28:26.987Z,1000.99
2022-10-05T06:29:27.244Z,1001.03
2022-10-05T06:30:27.017Z,1001.04
2022-10-05T06:31:27.044Z,1001.01
2022-10-05T06:32:27.007Z,1001.02
2022-10-05T06:33:27.027Z,1001.02
2022-10-05T06:34:27.042Z,1001.06
2022-10-05T06:35:27.062Z,1001.06
2022-10-05T06:36:27.090Z,1001.06
2022-10-05T06:37:27.097Z,1001.05
2022-10-05T06:38:27.118Z,1001.07
2022-10-05T06:39:27.134Z,1001.06
2022-10-05T06:40:27.156Z,1001.03
2022-10-05T06:41:27.379Z,1001.05
2022-10-05T06:42:27.191Z,1001.06
2022-10-05T06:43:27.208Z,1001.03
2022-10-05T06:44:27.227Z,1001.05
2022-10-05T06:45:27.274Z,1000.99
2022-10-05T06:46:27.268Z,1000.99
2022-10-05T06:47:27.279Z,1001.02
2022-10-05T06:48:27.302Z,1001.02
2022-10-05T06:49:27.326Z,1001
2022-10-05T06:50:27.341Z,1001
2022-10-05T06:51:27.358Z,1001.03
2022-10-05T06:52:27.378Z,1001.05
2022-10-05T06:53:27.394Z,1001.03
2022-10-05T06:54:27.414Z,1001
2022-10-05T06:55:27.431Z,1001.07
2022-10-05T06:56:27.451Z,1001.05
2022-10-05T06:57:27.493Z,1001.06
2022-10-05T06:58:27.491Z,1001.07
2022-10-05T06:59:27.506Z,1001.08
2022-10-05T07:00:27.525Z,1001.05
2022-10-05T07:01:27.612Z,1001.09
2022-10-05T07:02:27.589Z,1001.06
2022-10-05T07:03:27.581Z,1001.1
2022-10-05T07:04:27.597Z,1001.08
2022-10-05T07:05:27.624Z,1001.07
2022-10-05T07:06:27.637Z,1001.08
2022-10-05T07:07:27.667Z,1001.09
2022-10-05T07:08:27.676Z,1001.13
2022-10-05T07:09:27.693Z,1001.13
2022-10-05T07:10:27.710Z,1001.08
2022-10-05T07:11:27.736Z,1001.13
2022-10-05T07:12:27.749Z,1001.1
2022-10-05T07:13:27.792Z,1001.12
2022-10-05T07:14:27.787Z,1001.13
2022-10-05T07:15:27.806Z,1001.08
2022-10-05T07:16:27.921Z,1001.08
2022-10-05T07:17:27.847Z,1001.08
2022-10-05T07:18:27.860Z,1001.03
2022-10-05T07:19:27.882Z,1001.06
2022-10-05T07:20:27.897Z,1001.12
2022-10-05T07:21:27.916Z,1001.15
2022-10-05T07:22:29.271Z,1001.1
2022-10-05T07:23:27.955Z,1001.14
2022-10-05T07:24:27.977Z,1001.13
2022-10-05T07:25:27.995Z,1001.1
2022-10-05T07:26:28.014Z,1001.09
2022-10-05T07:27:28.030Z,1001.1
2022-10-05T07:28:28.116Z,1001.12
2022-10-05T07:29:28.164Z,1001.14
2022-10-05T07:30:28.168Z,1001.17
2022-10-05T07:31:28.110Z,1001.12
2022-10-05T07:32:28.124Z,1001.09
2022-10-05T07:33:28.145Z,1001.06
2022-10-05T07:34:28.158Z,1001.08
2022-10-05T07:35:28.179Z,1001.1
2022-10-05T07:36:28.198Z,1001.09
2022-10-05T07:37:28.220Z,1001.1
2022-10-05T07:38:28.233Z,1001.12
2022-10-05T07:39:36.847Z,1001.07
2022-10-05T07:40:28.277Z,1001.05
2022-10-05T07:41:28.294Z,1001.08
2022-10-05T07:42:28.312Z,1001.08
2022-10-05T07:43:35.881Z,1001.08
2022-10-05T07:44:28.349Z,1001.08
2022-10-05T07:45:28.486Z,1001.08
2022-10-05T07:46:28.384Z,1001.09
2022-10-05T07:47:28.407Z,1001.04
2022-10-05T07:48:28.440Z,1001.09
2022-10-05T07:49:28.440Z,1001.03
2022-10-05T07:50:28.463Z,1001.1
2022-10-05T07:51:28.484Z,1001.08
2022-10-05T07:52:32.358Z,1001.13
2022-10-05T07:53:28.519Z,1001.13
2022-10-05T07:54:28.534Z,1001.12
2022-10-05T07:55:28.556Z,1001.12
2022-10-05T07:56:28.583Z,1001.11
2022-10-05T07:57:28.593Z,1001.16
2022-10-05T07:58:28.612Z,1001.11
2022-10-05T07:59:28.641Z,1001.16
2022-10-05T08:00:28.650Z,1001.05
2022-10-05T08:01:28.711Z,1001.09
2022-10-05T08:02:28.837Z,1001.15
2022-10-05T08:03:28.704Z,1001.14
2022-10-05T08:04:28.872Z,1001.2
2022-10-05T08:05:28.745Z,1001.19
2022-10-05T08:06:28.765Z,1001.2
2022-10-05T08:07:28.880Z,1001.15
2022-10-05T08:08:28.804Z,1001.14
2022-10-05T08:09:28.819Z,1001.13
2022-10-05T08:10:28.837Z,1001.11
2022-10-05T08:11:28.854Z,1001.17
2022-10-05T08:12:28.875Z,1001.16
2022-10-05T08:13:28.895Z,1001.17
2022-10-05T08:14:28.918Z,1001.18
2022-10-05T08:15:28.929Z,1001.19
2022-10-05T08:16:29.060Z,1001.2
2022-10-05T08:17:29.044Z,1001.23
2022-10-05T08:18:28.988Z,1001.23
2022-10-05T08:19:29.010Z,1001.2
2022-10-05T08:20:29.027Z,1001.23
2022-10-05T08:21:29.052Z,1001.21
2022-10-05T08:22:29.065Z,1001.18
2022-10-05T08:23:29.088Z,1001.15
2022-10-05T08:24:29.103Z,1001.17
2022-10-05T08:25:29.118Z,1001.19
2022-10-05T08:26:29.140Z,1001.17
2022-10-05T08:27:29.156Z,1001.24
2022-10-05T08:28:29.215Z,1001.19
2022-10-05T08:29:29.396Z,1001.18
2022-10-05T08:30:29.217Z,1001.17
2022-10-05T08:31:29.261Z,1001.15
2022-10-05T08:32:29.356Z,1001.14
2022-10-05T08:33:29.303Z,1001.2
2022-10-05T08:34:29.290Z,1001.19
2022-10-05T08:35:29.310Z,1001.2
2022-10-05T08:36:29.328Z,1001.24
2022-10-05T08:37:29.348Z,1001.25
2022-10-05T08:38:29.367Z,1001.23
2022-10-05T08:39:29.386Z,1001.24
2022-10-05T08:40:29.406Z,1001.21
2022-10-05T08:41:29.424Z,1001.26
2022-10-05T08:42:29.440Z,1001.25
2022-10-05T08:43:32.977Z,1001.24
2022-10-05T08:44:29.479Z,1001.26
2022-10-05T08:45:29.506Z,1001.25
2022-10-05T08:46:29.580Z,1001.29
2022-10-05T08:47:29.536Z,1001.26
2022-10-05T08:48:29.556Z,1001.28
2022-10-05T08:49:32.891Z,1001.29
2022-10-05T08:50:29.590Z,1001.28
2022-10-05T08:51:29.613Z,1001.32
2022-10-05T08:52:29.629Z,1001.33
2022-10-05T08:53:29.651Z,1001.35
2022-10-05T08:54:29.669Z,1001.3
2022-10-05T08:55:29.685Z,1001.35
2022-10-05T08:56:29.703Z,1001.38
2022-10-05T08:57:29.727Z,1001.36
2022-10-05T08:58:29.742Z,1001.42
2022-10-05T08:59:29.764Z,1001.4
2022-10-05T09:00:29.780Z,1001.41
2022-10-05T09:01:29.902Z,1001.41
2022-10-05T09:02:29.848Z,1001.43
2022-10-05T09:03:33.620Z,1001.42
2022-10-05T09:04:29.855Z,1001.39
2022-10-05T09:05:29.969Z,1001.43
2022-10-05T09:06:29.894Z,1001.4
2022-10-05T09:07:29.917Z,1001.43
2022-10-05T09:08:29.932Z,1001.46
2022-10-05T09:09:29.946Z,1001.43
2022-10-05T09:10:29.968Z,1001.45
2022-10-05T09:11:29.993Z,1001.42
2022-10-05T09:12:30.007Z,1001.49
2022-10-05T09:13:30.026Z,1001.45
2022-10-05T09:14:30.044Z,1001.43
2022-10-05T09:15:30.067Z,1001.42
2022-10-05T09:16:30.085Z,1001.48
2022-10-05T09:17:30.104Z,1001.5
2022-10-05T09:18:30.124Z,1001.45
2022-10-05T09:19:30.153Z,1001.47
2022-10-05T09:20:30.163Z,1001.49
2022-10-05T09:21:30.203Z,1001.5
2022-10-05T09:22:30.198Z,1001.5
2022-10-05T09:23:30.221Z,1001.56
2022-10-05T09:24:30.234Z,1001.49
2022-10-05T09:25:30.266Z,1001.47
2022-10-05T09:26:30.272Z,1001.56
2022-10-05T09:27:30.295Z,1001.56
2022-10-05T09:28:30.381Z,1001.53
2022-10-05T09:29:30.481Z,1001.5
2022-10-05T09:30:30.351Z,1001.54
2022-10-05T09:31:30.423Z,1001.51
2022-10-05T09:32:30.389Z,1001.54
2022-10-05T09:33:30.405Z,1001.48
2022-10-05T09:34:30.426Z,1001.49
2022-10-05T09:35:30.444Z,1001.51
2022-10-05T09:36:30.464Z,1001.46
2022-10-05T09:37:30.508Z,1001.48
2022-10-05T09:38:30.502Z,1001.49
2022-10-05T09:39:30.520Z,1001.48
2022-10-05T09:40:30.539Z,1001.45
2022-10-05T09:41:30.559Z,1001.47
2022-10-05T09:42:30.577Z,1001.46
2022-10-05T09:43:30.595Z,1001.46
2022-10-05T09:44:30.618Z,1001.47
2022-10-05T09:45:30.633Z,1001.49
2022-10-05T09:46:30.693Z,1001.51
2022-10-05T09:47:30.674Z,1001.47
2022-10-05T09:48:30.693Z,1001.47
2022-10-05T09:49:30.712Z,1001.42
2022-10-05T09:50:30.730Z,1001.4
2022-10-05T09:51:30.750Z,1001.44
2022-10-05T09:52:30.772Z,1001.42
2022-10-05T09:53:30.810Z,1001.41
2022-10-05T09:54:30.808Z,1001.43
2022-10-05T09:55:30.825Z,1001.4
2022-10-05T09:56:30.851Z,1001.46
2022-10-05T09:57:30.862Z,1001.42
2022-10-05T09:58:30.882Z,1001.39
2022-10-05T09:59:30.899Z,1001.42
2022-10-05T10:00:30.922Z,1001.42
2022-10-05T10:01:34.527Z,1001.41
2022-10-05T10:02:31.049Z,1001.46
2022-10-05T10:03:30.983Z,1001.4
2022-10-05T10:04:30.998Z,1001.41
2022-10-05T10:05:31.017Z,1001.42
2022-10-05T10:06:31.035Z,1001.4
2022-10-05T10:07:31.057Z,1001.37
2022-10-05T10:08:31.073Z,1001.36
2022-10-05T10:09:33.056Z,1001.4
2022-10-05T10:10:31.111Z,1001.38
2022-10-05T10:11:31.129Z,1001.33
2022-10-05T10:12:31.151Z,1001.38
2022-10-05T10:13:31.167Z,1001.42
2022-10-05T10:14:31.191Z,1001.44
2022-10-05T10:15:31.224Z,1001.41
2022-10-05T10:16:31.239Z,1001.41
2022-10-05T10:17:31.240Z,1001.38
2022-10-05T10:18:31.265Z,1001.39
2022-10-05T10:19:31.284Z,1001.4
2022-10-05T10:20:31.304Z,1001.39
2022-10-05T10:21:31.326Z,1001.42
2022-10-05T10:22:31.341Z,1001.35
2022-10-05T10:23:31.364Z,1001.37
2022-10-05T10:24:31.379Z,1001.37
2022-10-05T10:25:31.433Z,1001.36
2022-10-05T10:26:31.417Z,1001.37
2022-10-05T10:27:31.438Z,1001.36
2022-10-05T10:28:31.498Z,1001.29
2022-10-05T10:29:31.531Z,1001.3
2022-10-05T10:30:32.041Z,1001.27
2022-10-05T10:31:31.618Z,1001.3
2022-10-05T10:32:31.538Z,1001.29
2022-10-05T10:33:31.557Z,1001.27
2022-10-05T10:34:31.574Z,1001.19
2022-10-05T10:35:31.687Z,1001.2
2022-10-05T10:36:31.609Z,1001.19
2022-10-05T10:37:31.632Z,1001.09
2022-10-05T10:38:31.649Z,1001.12
2022-10-05T10:39:31.674Z,1001.15
2022-10-05T10:40:31.687Z,1001.18
2022-10-05T10:41:31.734Z,1001.11
2022-10-05T10:42:31.729Z,1001.04
2022-10-05T10:43:31.749Z,1001.18
2022-10-05T10:44:31.766Z,1001.13
2022-10-05T10:45:31.790Z,1001.1
2022-10-05T10:46:31.843Z,1001.06
2022-10-05T10:47:31.826Z,1001.08
2022-10-05T10:48:31.846Z,1001.05
2022-10-05T10:49:31.866Z,1001.06
2022-10-05T10:50:31.882Z,1001.08
2022-10-05T10:51:31.906Z,1001.1
2022-10-05T10:52:31.921Z,1001.04
2022-10-05T10:53:31.944Z,1001
2022-10-05T10:54:31.959Z,1000.99
2022-10-05T10:55:31.979Z,1000.98
2022-10-05T10:56:31.998Z,1000.99
2022-10-05T10:57:32.044Z,1000.99
2022-10-05T10:58:32.041Z,1000.95
2022-10-05T10:59:32.057Z,1001
2022-10-05T11:00:32.080Z,1000.97
2022-10-05T11:01:32.171Z,1000.96
2022-10-05T11:02:32.157Z,1000.95
2022-10-05T11:03:32.136Z,1001
2022-10-05T11:04:32.154Z,1000.91
2022-10-05T11:05:32.179Z,1000.99
2022-10-05T11:06:32.195Z,1000.96
2022-10-05T11:07:32.214Z,1000.9
2022-10-05T11:08:32.233Z,1000.91
2022-10-05T11:09:32.255Z,1000.84
2022-10-05T11:10:32.279Z,1000.86
2022-10-05T11:11:32.296Z,1000.87
2022-10-05T11:12:34.647Z,1000.82
2022-10-05T11:13:32.355Z,1000.86
2022-10-05T11:14:32.355Z,1000.89
2022-10-05T11:15:32.478Z,1000.86
2022-10-05T11:16:32.396Z,1000.9
2022-10-05T11:17:32.409Z,1000.83
2022-10-05T11:18:32.429Z,1000.84
2022-10-05T11:19:39.849Z,1000.84
2022-10-05T11:20:32.473Z,1000.86
2022-10-05T11:21:32.489Z,1000.85
2022-10-05T11:22:32.510Z,1000.84
2022-10-05T11:23:36.587Z,1000.82
2022-10-05T11:24:32.550Z,1000.76
2022-10-05T11:25:32.568Z,1000.79
2022-10-05T11:26:32.599Z,1000.75
2022-10-05T11:27:32.607Z,1000.77
2022-10-05T11:28:32.684Z,1000.79
2022-10-05T11:29:32.722Z,1000.77
2022-10-05T11:30:32.668Z,1000.75
2022-10-05T11:31:32.728Z,1000.7
2022-10-05T11:32:32.707Z,1000.73
2022-10-05T11:33:32.730Z,1000.72
2022-10-05T11:34:32.750Z,1000.71
2022-10-05T11:35:32.764Z,1000.69
2022-10-05T11:36:32.793Z,1000.67
2022-10-05T11:37:32.806Z,1000.69
2022-10-05T11:38:32.831Z,1000.69
2022-10-05T11:39:32.848Z,1000.63
2022-10-05T11:40:32.868Z,1000.63
2022-10-05T11:41:32.886Z,1000.64
2022-10-05T11:42:32.910Z,1000.65
2022-10-05T11:43:32.934Z,1000.65
2022-10-05T11:44:32.947Z,1000.6
2022-10-05T11:45:33.032Z,1000.55
2022-10-05T11:46:33.054Z,1000.54
2022-10-05T11:47:33.005Z,1000.55
2022-10-05T11:48:33.030Z,1000.61
2022-10-05T11:49:33.047Z,1000.58
2022-10-05T11:50:33.070Z,1000.53
2022-10-05T11:51:33.090Z,1000.55
2022-10-05T11:52:33.108Z,1000.46
2022-10-05T11:53:33.128Z,1000.44
2022-10-05T11:54:46.830Z,1000.43
2022-10-05T11:55:33.172Z,1000.39
2022-10-05T11:56:33.198Z,1000.37
2022-10-05T11:57:33.206Z,1000.39
2022-10-05T11:58:33.230Z,1000.33
2022-10-05T11:59:33.248Z,1000.35
2022-10-05T12:00:33.269Z,1000.33
2022-10-05T12:01:33.315Z,1000.33
2022-10-05T12:02:33.390Z,1000.29
2022-10-05T12:03:33.447Z,1000.3
2022-10-05T12:04:33.346Z,1000.27
2022-10-05T12:05:33.372Z,1000.23
2022-10-05T12:06:33.389Z,1000.25
2022-10-05T12:07:33.400Z,1000.24
2022-10-05T12:08:33.427Z,1000.27